createdAt,value
2019-01-14T00:00:30.562Z,40.40
2019-01-14T00:01:01.836Z,38.98
2019-01-14T00:01:33.074Z,41.00
2019-01-14T00:02:04.335Z,39.45
2019-01-14T00:02:35.509Z,39.38
2019-01-14T00:03:06.763Z,40.98
2019-01-14T00:03:37.985Z,40.88
2019-01-14T00:04:09.216Z,39.88
2019-01-14T00:04:40.413Z,39.23
2019-01-14T00:05:11.534Z,39.95
2019-01-14T00:05:42.741Z,40.80
2019-01-14T00:06:14.019Z,41.18
2019-01-14T00:06:45.172Z,40.73
2019-01-14T00:07:16.386Z,41.65
2019-01-14T00:07:47.624Z,39.35
2019-01-14T00:08:18.834Z,38.58
2019-01-14T00:08:50.027Z,39.90
2019-01-14T00:09:23.432Z,40.63
2019-01-14T00:09:54.242Z,39.00
2019-01-14T00:10:25.443Z,38.75
2019-01-14T00:10:56.640Z,42.33
2019-01-14T00:11:27.826Z,43.10
2019-01-14T00:11:59.058Z,43.38
2019-01-14T00:12:30.291Z,44.15
2019-01-14T00:13:01.420Z,40.33
2019-01-14T00:13:32.637Z,41.65
2019-01-14T00:14:03.927Z,42.78
2019-01-14T00:14:35.166Z,41.70
2019-01-14T00:15:06.402Z,44.98
2019-01-14T00:15:37.639Z,42.20
2019-01-14T00:16:09.648Z,41.65
2019-01-14T00:16:40.897Z,46.83
2019-01-14T00:17:12.129Z,41.90
2019-01-14T00:17:43.360Z,43.98
2019-01-14T00:18:14.563Z,44.13
2019-01-14T00:18:45.841Z,42.40
2019-01-14T00:19:17.073Z,41.50
2019-01-14T00:19:48.258Z,39.60
2019-01-14T00:20:19.503Z,41.37
2019-01-14T00:20:50.728Z,38.73
2019-01-14T00:21:21.955Z,40.15
2019-01-14T00:21:53.170Z,40.75
2019-01-14T00:22:24.388Z,41.45
2019-01-14T00:22:55.622Z,39.48
2019-01-14T00:23:26.834Z,42.40
2019-01-14T00:23:58.065Z,41.88
2019-01-14T00:24:29.258Z,41.60
2019-01-14T00:25:00.452Z,42.35
2019-01-14T00:25:31.643Z,41.73
2019-01-14T00:26:02.918Z,39.35
2019-01-14T00:26:34.089Z,40.95
2019-01-14T00:27:05.322Z,40.43
2019-01-14T00:27:36.569Z,41.65
2019-01-14T00:28:07.780Z,42.48
2019-01-14T00:28:39.007Z,40.90
2019-01-14T00:29:10.261Z,40.90
2019-01-14T00:29:41.553Z,43.20
2019-01-14T00:30:12.768Z,43.05
2019-01-14T00:30:43.976Z,41.98
2019-01-14T00:31:15.173Z,41.45
2019-01-14T00:31:46.381Z,42.93
2019-01-14T00:32:17.608Z,39.38
2019-01-14T00:32:48.804Z,40.35
2019-01-14T00:33:20.009Z,43.23
2019-01-14T00:33:51.217Z,42.30
2019-01-14T00:34:22.442Z,44.05
2019-01-14T00:34:53.697Z,42.65
2019-01-14T00:35:24.883Z,41.88
2019-01-14T00:35:56.162Z,41.05
2019-01-14T00:36:27.398Z,41.18
2019-01-14T00:36:58.631Z,41.28
2019-01-14T00:37:29.872Z,42.27
2019-01-14T00:38:01.116Z,42.40
2019-01-14T00:38:32.329Z,41.60
2019-01-14T00:39:03.530Z,42.20
2019-01-14T00:39:34.733Z,40.48
2019-01-14T00:40:05.975Z,40.92
2019-01-14T00:40:37.200Z,42.45
2019-01-14T00:41:08.464Z,41.28
2019-01-14T00:41:39.694Z,39.60
2019-01-14T00:42:10.951Z,39.58
2019-01-14T00:42:42.156Z,39.30
2019-01-14T00:43:13.336Z,41.08
2019-01-14T00:43:44.627Z,39.30
2019-01-14T00:44:15.856Z,39.30
2019-01-14T00:44:47.067Z,41.28
2019-01-14T00:45:18.315Z,40.65
2019-01-14T00:45:49.541Z,40.70
2019-01-14T00:46:20.767Z,39.98
2019-01-14T00:46:51.960Z,40.45
2019-01-14T00:47:23.203Z,40.78
2019-01-14T00:47:54.375Z,40.35
2019-01-14T00:48:25.618Z,40.08
2019-01-14T00:48:56.819Z,40.30
2019-01-14T00:49:28.095Z,39.48
2019-01-14T00:49:59.383Z,39.33
2019-01-14T00:50:30.576Z,38.48
2019-01-14T00:51:01.775Z,38.78
2019-01-14T00:51:33.009Z,39.05
2019-01-14T00:52:04.232Z,41.80
2019-01-14T00:52:35.476Z,39.58
2019-01-14T00:53:06.724Z,40.40
2019-01-14T00:53:37.942Z,41.42
2019-01-14T00:54:10.651Z,39.05
2019-01-14T00:54:41.976Z,39.25
2019-01-14T00:55:13.200Z,37.95
2019-01-14T00:55:44.438Z,37.75
2019-01-14T00:56:15.713Z,42.35
2019-01-14T00:56:46.860Z,40.63
2019-01-14T00:57:18.095Z,41.08
2019-01-14T00:57:49.304Z,40.43
2019-01-14T00:58:20.543Z,43.45
2019-01-14T00:58:51.802Z,42.60
2019-01-14T00:59:22.992Z,42.25
2019-01-14T00:59:54.206Z,45.05
2019-01-14T01:00:25.481Z,45.83
2019-01-14T01:00:56.734Z,45.15
2019-01-14T01:01:27.977Z,46.42
2019-01-14T01:01:59.195Z,47.50
2019-01-14T01:02:30.426Z,44.70
2019-01-14T01:03:01.672Z,45.05
2019-01-14T01:03:32.897Z,44.45
2019-01-14T01:04:04.112Z,46.30
2019-01-14T01:04:35.393Z,47.95
2019-01-14T01:05:06.777Z,47.03
2019-01-14T01:05:37.995Z,45.88
2019-01-14T01:06:09.225Z,46.75
2019-01-14T01:06:40.483Z,44.27
2019-01-14T01:07:11.714Z,47.43
2019-01-14T01:07:43.017Z,45.28
2019-01-14T01:08:16.208Z,44.95
2019-01-14T01:08:47.395Z,48.05
2019-01-14T01:09:18.626Z,48.28
2019-01-14T01:09:49.922Z,48.10
2019-01-14T01:10:21.149Z,46.77
2019-01-14T01:10:52.405Z,43.98
2019-01-14T01:11:23.648Z,46.10
2019-01-14T01:11:54.854Z,47.05
2019-01-14T01:12:26.127Z,44.25
2019-01-14T01:12:57.399Z,42.75
2019-01-14T01:13:28.596Z,41.42
2019-01-14T01:13:59.820Z,42.03
2019-01-14T01:14:31.257Z,41.77
2019-01-14T01:15:02.505Z,43.92
2019-01-14T01:15:33.726Z,42.60
2019-01-14T01:16:04.928Z,43.13
2019-01-14T01:16:36.176Z,43.02
2019-01-14T01:17:07.390Z,42.83
2019-01-14T01:17:38.577Z,44.75
2019-01-14T01:18:09.860Z,44.05
2019-01-14T01:18:41.131Z,44.90
2019-01-14T01:19:12.390Z,46.20
2019-01-14T01:19:43.671Z,41.58
2019-01-14T01:20:14.878Z,43.17
2019-01-14T01:20:46.129Z,40.98
2019-01-14T01:21:17.407Z,40.83
2019-01-14T01:21:48.627Z,41.90
2019-01-14T01:22:19.914Z,41.18
2019-01-14T01:22:51.126Z,40.90
2019-01-14T01:23:22.343Z,41.18
2019-01-14T01:23:53.609Z,39.83
2019-01-14T01:24:24.828Z,36.65
2019-01-14T01:24:56.078Z,38.50
2019-01-14T01:25:27.282Z,38.63
2019-01-14T01:25:58.560Z,39.60
2019-01-14T01:26:29.760Z,39.60
2019-01-14T01:27:00.980Z,39.70
2019-01-14T01:27:32.206Z,38.17
2019-01-14T01:28:03.419Z,40.52
2019-01-14T01:28:34.724Z,41.23
2019-01-14T01:29:05.950Z,39.83
2019-01-14T01:29:37.166Z,38.17
2019-01-14T01:30:08.446Z,39.92
2019-01-14T01:30:39.769Z,39.13
2019-01-14T01:31:11.052Z,38.78
2019-01-14T01:31:42.346Z,38.58
2019-01-14T01:32:13.690Z,38.70
2019-01-14T01:32:44.970Z,39.88
2019-01-14T01:33:16.255Z,40.58
2019-01-14T01:33:47.632Z,40.40
2019-01-14T01:34:18.877Z,42.15
2019-01-14T01:34:50.121Z,41.85
2019-01-14T01:35:21.381Z,40.10
2019-01-14T01:35:52.622Z,40.73
2019-01-14T01:36:23.868Z,40.30
2019-01-14T01:36:55.114Z,39.85
2019-01-14T01:37:26.420Z,40.25
2019-01-14T01:37:57.686Z,41.48
2019-01-14T01:38:28.979Z,41.63
2019-01-14T01:39:00.275Z,40.08
2019-01-14T01:39:31.559Z,39.95
2019-01-14T01:40:02.822Z,35.17
2019-01-14T01:40:34.142Z,39.35
2019-01-14T01:41:05.385Z,43.20
2019-01-14T01:41:36.660Z,43.15
2019-01-14T01:42:07.987Z,43.02
2019-01-14T01:42:39.289Z,48.58
2019-01-14T01:43:10.597Z,50.43
2019-01-14T01:43:41.849Z,47.75
2019-01-14T01:44:13.214Z,43.00
2019-01-14T01:44:44.481Z,41.70
2019-01-14T01:45:15.741Z,41.63
2019-01-14T01:45:47.019Z,39.03
2019-01-14T01:46:18.373Z,40.88
2019-01-14T01:46:49.620Z,42.78
2019-01-14T01:47:21.557Z,40.58
2019-01-14T01:47:52.844Z,41.65
2019-01-14T01:48:24.157Z,42.05
2019-01-14T01:48:56.414Z,39.90
2019-01-14T01:49:27.809Z,39.73
2019-01-14T01:49:59.149Z,41.73
2019-01-14T01:50:30.469Z,40.92
2019-01-14T01:51:01.850Z,40.12
2019-01-14T01:51:33.148Z,40.78
2019-01-14T01:52:04.577Z,39.73
2019-01-14T01:52:36.785Z,39.80
2019-01-14T01:53:08.101Z,40.48
2019-01-14T01:53:39.478Z,40.43
2019-01-14T01:54:10.807Z,39.95
2019-01-14T01:54:42.672Z,41.77
2019-01-14T01:55:14.060Z,40.52
2019-01-14T01:55:45.373Z,40.55
2019-01-14T01:56:16.710Z,40.90
2019-01-14T01:56:48.018Z,41.98
2019-01-14T01:57:19.291Z,41.00
2019-01-14T01:57:50.499Z,42.50
2019-01-14T01:58:21.721Z,42.15
2019-01-14T01:58:53.148Z,41.88
2019-01-14T01:59:24.468Z,40.08
2019-01-14T01:59:55.816Z,39.10
2019-01-14T02:00:27.052Z,40.67
2019-01-14T02:00:58.360Z,40.50
2019-01-14T02:01:29.721Z,38.33
2019-01-14T02:02:03.310Z,37.30
2019-01-14T02:02:34.505Z,37.28
2019-01-14T02:03:17.086Z,38.75
2019-01-14T02:03:48.458Z,37.20
2019-01-14T02:04:19.745Z,38.63
2019-01-14T02:04:50.991Z,39.55
2019-01-14T02:05:22.419Z,38.25
2019-01-14T02:05:53.684Z,36.88
2019-01-14T02:06:25.014Z,37.58
2019-01-14T02:06:56.284Z,38.17
2019-01-14T02:07:27.681Z,38.42
2019-01-14T02:07:59.005Z,37.25
2019-01-14T02:08:30.321Z,34.63
2019-01-14T02:09:01.687Z,35.92
2019-01-14T02:09:33.994Z,35.20
2019-01-14T02:10:06.576Z,35.70
2019-01-14T02:10:37.966Z,36.15
2019-01-14T02:11:09.266Z,37.58
2019-01-14T02:11:40.558Z,38.35
2019-01-14T02:12:12.804Z,36.03
2019-01-14T02:12:44.124Z,36.28
2019-01-14T02:13:15.435Z,36.55
2019-01-14T02:13:46.760Z,38.80
2019-01-14T02:14:18.044Z,37.80
2019-01-14T02:14:49.283Z,37.78
2019-01-14T02:15:20.647Z,39.05
2019-01-14T02:15:52.052Z,37.80
2019-01-14T02:16:26.768Z,38.02
2019-01-14T02:16:58.154Z,38.40
2019-01-14T02:17:30.072Z,36.55
2019-01-14T02:18:01.402Z,36.15
2019-01-14T02:18:33.205Z,36.20
2019-01-14T02:19:04.536Z,38.88
2019-01-14T02:19:35.861Z,39.38
2019-01-14T02:20:11.656Z,38.83
2019-01-14T02:20:43.860Z,38.00
2019-01-14T02:21:15.171Z,35.90
2019-01-14T02:21:46.536Z,37.25
2019-01-14T02:22:18.280Z,35.15
2019-01-14T02:22:49.971Z,34.92
2019-01-14T02:23:21.452Z,33.92
2019-01-14T02:23:55.889Z,32.88
2019-01-14T02:24:27.266Z,31.30
2019-01-14T02:24:58.596Z,31.85
2019-01-14T02:25:31.069Z,30.20
2019-01-14T02:26:04.978Z,28.07
2019-01-14T02:26:36.301Z,29.00
2019-01-14T02:27:07.658Z,31.15
2019-01-14T02:27:39.632Z,29.20
2019-01-14T02:28:10.908Z,29.27
2019-01-14T02:28:43.750Z,29.25
2019-01-14T02:29:15.851Z,28.38
2019-01-14T02:29:47.142Z,29.18
2019-01-14T02:30:19.731Z,29.37
2019-01-14T02:30:51.089Z,29.77
2019-01-14T02:31:22.918Z,30.08
2019-01-14T02:31:55.219Z,28.17
2019-01-14T02:32:26.790Z,29.12
2019-01-14T02:32:58.160Z,28.85
2019-01-14T02:33:29.494Z,29.90
2019-01-14T02:34:00.830Z,29.15
2019-01-14T02:34:32.165Z,30.15
2019-01-14T02:35:03.633Z,29.32
2019-01-14T02:35:35.030Z,30.48
2019-01-14T02:36:06.340Z,29.77
2019-01-14T02:36:38.695Z,29.42
2019-01-14T02:37:10.115Z,29.45
2019-01-14T02:37:42.631Z,30.12
2019-01-14T02:38:14.028Z,30.75
2019-01-14T02:38:45.397Z,29.98
2019-01-14T02:39:16.701Z,31.37
2019-01-14T02:39:48.122Z,30.25
2019-01-14T02:40:19.847Z,29.55
2019-01-14T02:40:51.191Z,31.35
2019-01-14T02:41:22.527Z,29.87
2019-01-14T02:41:53.856Z,29.30
2019-01-14T02:42:25.128Z,30.23
2019-01-14T02:42:56.474Z,31.05
2019-01-14T02:43:27.928Z,30.70
2019-01-14T02:43:59.670Z,32.05
2019-01-14T02:44:30.995Z,30.77
2019-01-14T02:45:02.221Z,31.97
2019-01-14T02:45:34.031Z,30.88
2019-01-14T02:46:05.454Z,29.42
2019-01-14T02:46:36.706Z,30.65
2019-01-14T02:47:08.259Z,30.12
2019-01-14T02:47:39.499Z,29.67
2019-01-14T02:48:10.862Z,30.90
2019-01-14T02:48:42.743Z,29.67
2019-01-14T02:49:14.067Z,29.30
2019-01-14T02:49:45.447Z,28.23
2019-01-14T02:50:17.659Z,28.10
2019-01-14T02:50:50.417Z,29.40
2019-01-14T02:51:22.172Z,27.32
2019-01-14T02:51:53.485Z,26.77
2019-01-14T02:52:24.824Z,27.90
2019-01-14T02:52:56.287Z,27.40
2019-01-14T02:53:27.600Z,27.85
2019-01-14T02:53:58.880Z,26.82
2019-01-14T02:54:30.136Z,26.52
2019-01-14T02:55:01.430Z,26.70
2019-01-14T02:55:32.772Z,28.42
2019-01-14T02:56:04.017Z,28.80
2019-01-14T02:56:35.292Z,28.00
2019-01-14T02:57:06.560Z,25.05
2019-01-14T02:57:37.861Z,26.70
2019-01-14T02:58:09.169Z,27.00
2019-01-14T02:58:40.454Z,26.12
2019-01-14T02:59:11.758Z,26.12
2019-01-14T02:59:43.066Z,29.48
2019-01-14T03:00:14.367Z,26.33
2019-01-14T03:00:45.625Z,25.90
2019-01-14T03:01:16.931Z,27.10
2019-01-14T03:01:48.191Z,28.17
2019-01-14T03:02:19.458Z,27.62
2019-01-14T03:02:50.670Z,29.42
2019-01-14T03:03:21.994Z,28.77
2019-01-14T03:03:53.275Z,27.40
2019-01-14T03:04:24.480Z,27.40
2019-01-14T03:04:55.745Z,26.07
2019-01-14T03:05:26.960Z,27.22
2019-01-14T03:05:58.310Z,27.05
2019-01-14T03:06:29.595Z,26.33
2019-01-14T03:07:00.874Z,28.35
2019-01-14T03:07:32.213Z,28.12
2019-01-14T03:08:03.568Z,28.05
2019-01-14T03:08:34.804Z,28.20
2019-01-14T03:09:06.124Z,27.75
2019-01-14T03:09:37.393Z,28.32
2019-01-14T03:10:08.646Z,29.37
2019-01-14T03:10:39.895Z,28.87
2019-01-14T03:11:11.165Z,29.77
2019-01-14T03:11:42.470Z,30.32
2019-01-14T03:12:13.817Z,30.37
2019-01-14T03:12:45.380Z,29.02
2019-01-14T03:13:16.776Z,27.58
2019-01-14T03:13:48.134Z,27.77
2019-01-14T03:14:19.474Z,24.63
2019-01-14T03:14:50.793Z,23.07
2019-01-14T03:15:22.103Z,23.18
2019-01-14T03:15:54.637Z,25.20
2019-01-14T03:16:41.597Z,27.20
2019-01-14T03:17:13.465Z,27.07
2019-01-14T03:17:45.469Z,27.98
2019-01-14T03:18:18.685Z,26.23
2019-01-14T03:18:50.529Z,26.95
2019-01-14T03:19:22.588Z,26.37
2019-01-14T03:19:55.163Z,27.35
2019-01-14T03:20:26.476Z,26.95
2019-01-14T03:21:01.903Z,27.77
2019-01-14T03:21:40.920Z,27.42
2019-01-14T03:22:12.371Z,29.27
2019-01-14T03:22:44.774Z,29.92
2019-01-14T03:23:19.881Z,29.23
2019-01-14T03:23:51.183Z,30.37
2019-01-14T03:24:25.322Z,32.20
2019-01-14T03:25:13.407Z,30.97
2019-01-14T03:25:45.976Z,30.43
2019-01-14T03:26:19.822Z,33.13
2019-01-14T03:26:51.080Z,32.03
2019-01-14T03:27:22.383Z,31.17
2019-01-14T03:27:53.684Z,32.75
2019-01-14T03:28:25.024Z,33.83
2019-01-14T03:28:56.318Z,31.60
2019-01-14T03:29:27.598Z,32.00
2019-01-14T03:29:58.935Z,29.75
2019-01-14T03:30:30.171Z,30.17
2019-01-14T03:31:01.933Z,30.43
2019-01-14T03:31:33.303Z,29.90
2019-01-14T03:32:04.669Z,30.80
2019-01-14T03:32:36.029Z,30.48
2019-01-14T03:33:07.371Z,30.72
2019-01-14T03:33:38.757Z,31.48
2019-01-14T03:34:10.273Z,29.77
2019-01-14T03:34:41.600Z,29.60
2019-01-14T03:35:12.936Z,30.50
2019-01-14T03:35:46.706Z,29.63
2019-01-14T03:36:19.137Z,27.82
2019-01-14T03:36:51.058Z,28.17
2019-01-14T03:37:22.411Z,28.02
2019-01-14T03:37:55.612Z,26.35
2019-01-14T03:38:28.155Z,27.20
2019-01-14T03:38:59.545Z,27.27
2019-01-14T03:39:30.869Z,28.92
2019-01-14T03:40:02.789Z,28.20
2019-01-14T03:40:34.706Z,29.07
2019-01-14T03:41:07.241Z,29.52
2019-01-14T03:41:38.671Z,29.32
2019-01-14T03:42:11.470Z,29.07
2019-01-14T03:42:42.864Z,31.02
2019-01-14T03:43:15.011Z,29.27
2019-01-14T03:43:46.659Z,29.55
2019-01-14T03:44:17.960Z,26.00
2019-01-14T03:44:49.714Z,26.85
2019-01-14T03:45:21.013Z,28.10
2019-01-14T03:45:52.363Z,27.87
2019-01-14T03:46:23.644Z,28.67
2019-01-14T03:46:55.062Z,28.80
2019-01-14T03:47:26.445Z,30.95
2019-01-14T03:47:57.724Z,34.98
2019-01-14T03:48:29.070Z,33.88
2019-01-14T03:49:00.474Z,26.62
2019-01-14T03:49:31.838Z,24.15
2019-01-14T03:50:05.074Z,26.75
2019-01-14T03:50:36.341Z,25.00
2019-01-14T03:51:07.625Z,25.20
2019-01-14T03:51:38.937Z,25.97
2019-01-14T03:52:10.445Z,26.50
2019-01-14T03:52:41.836Z,27.00
2019-01-14T03:53:24.773Z,27.50
2019-01-14T03:53:56.138Z,28.05
2019-01-14T03:54:27.814Z,29.72
2019-01-14T03:55:00.139Z,28.95
2019-01-14T03:55:31.418Z,29.27
2019-01-14T03:56:02.745Z,30.05
2019-01-14T03:56:34.961Z,30.12
2019-01-14T03:57:07.034Z,30.52
2019-01-14T03:57:38.558Z,31.30
2019-01-14T03:58:12.298Z,30.02
2019-01-14T03:58:43.638Z,30.55
2019-01-14T03:59:15.004Z,29.30
2019-01-14T03:59:46.348Z,28.62
2019-01-14T04:00:17.753Z,28.62
2019-01-14T04:00:49.007Z,28.10
2019-01-14T04:01:20.289Z,30.23
2019-01-14T04:01:51.654Z,29.60
2019-01-14T04:02:22.981Z,28.70
2019-01-14T04:02:54.313Z,29.20
2019-01-14T04:03:25.648Z,29.30
2019-01-14T04:03:57.820Z,29.07
2019-01-14T04:04:31.202Z,30.15
2019-01-14T04:05:02.568Z,28.73
2019-01-14T04:05:34.361Z,29.55
2019-01-14T04:06:05.987Z,30.62
2019-01-14T04:06:38.186Z,30.05
2019-01-14T04:07:13.773Z,28.95
2019-01-14T04:07:42.663Z,28.20
2019-01-14T04:08:14.287Z,28.67
2019-01-14T04:08:45.998Z,27.77
2019-01-14T04:09:17.462Z,28.42
2019-01-14T04:09:49.592Z,29.67
2019-01-14T04:10:22.230Z,29.35
2019-01-14T04:10:53.537Z,30.77
2019-01-14T04:11:34.428Z,30.62
2019-01-14T04:12:07.803Z,29.82
2019-01-14T04:12:41.220Z,30.48
2019-01-14T04:13:13.099Z,29.67
2019-01-14T04:13:44.754Z,29.90
2019-01-14T04:14:16.095Z,28.75
2019-01-14T04:14:57.695Z,29.15
2019-01-14T04:15:29.081Z,29.37
2019-01-14T04:16:04.130Z,29.18
2019-01-14T04:16:35.514Z,29.57
2019-01-14T04:17:15.008Z,30.32
2019-01-14T04:17:59.014Z,30.92
2019-01-14T04:18:32.610Z,29.98
2019-01-14T04:19:05.702Z,30.70
2019-01-14T04:19:47.600Z,32.75
2019-01-14T04:21:13.251Z,31.25
2019-01-14T04:21:44.355Z,34.78
2019-01-14T04:22:15.607Z,30.08
2019-01-14T04:22:46.819Z,30.85
2019-01-14T04:23:18.011Z,32.33
2019-01-14T04:23:49.204Z,35.85
2019-01-14T04:24:20.416Z,41.33
2019-01-14T04:24:51.632Z,39.78
2019-01-14T04:25:22.859Z,35.30
2019-01-14T04:25:54.051Z,35.78
2019-01-14T04:26:25.255Z,35.83
2019-01-14T04:26:56.440Z,35.58
2019-01-14T04:27:27.706Z,33.20
2019-01-14T04:27:58.950Z,35.38
2019-01-14T04:28:30.173Z,33.90
2019-01-14T04:29:01.402Z,34.67
2019-01-14T04:29:32.593Z,35.15
2019-01-14T04:30:03.848Z,34.98
2019-01-14T04:30:35.051Z,34.03
2019-01-14T04:31:06.242Z,35.83
2019-01-14T04:31:37.453Z,35.23
2019-01-14T04:32:08.653Z,36.42
2019-01-14T04:32:39.845Z,35.08
2019-01-14T04:33:11.013Z,35.60
2019-01-14T04:33:42.269Z,34.83
2019-01-14T04:34:13.458Z,36.88
2019-01-14T04:34:44.644Z,34.58
2019-01-14T04:35:16.039Z,35.68
2019-01-14T04:35:47.231Z,34.43
2019-01-14T04:36:18.435Z,34.65
2019-01-14T04:36:49.697Z,33.13
2019-01-14T04:37:21.692Z,34.05
2019-01-14T04:37:53.167Z,35.33
2019-01-14T04:38:24.371Z,33.33
2019-01-14T04:38:55.636Z,34.90
2019-01-14T04:39:26.864Z,36.00
2019-01-14T04:39:58.067Z,35.00
2019-01-14T04:40:29.323Z,33.78
2019-01-14T04:41:00.541Z,36.20
2019-01-14T04:41:31.767Z,35.38
2019-01-14T04:42:03.074Z,34.80
2019-01-14T04:42:34.300Z,38.28
2019-01-14T04:43:05.517Z,27.70
2019-01-14T04:43:36.748Z,29.20
2019-01-14T04:44:07.986Z,30.45
2019-01-14T04:44:39.208Z,32.23
2019-01-14T04:45:10.478Z,32.65
2019-01-14T04:45:41.665Z,31.82
2019-01-14T04:46:12.967Z,32.85
2019-01-14T04:46:44.164Z,31.93
2019-01-14T04:47:15.438Z,31.42
2019-01-14T04:47:46.630Z,32.03
2019-01-14T04:48:17.823Z,31.30
2019-01-14T04:48:49.050Z,31.27
2019-01-14T04:49:20.303Z,30.95
2019-01-14T04:49:51.549Z,32.60
2019-01-14T04:50:22.776Z,33.15
2019-01-14T04:50:53.995Z,33.48
2019-01-14T04:51:25.240Z,31.57
2019-01-14T04:51:56.442Z,33.15
2019-01-14T04:52:27.611Z,33.33
2019-01-14T04:52:58.867Z,32.58
2019-01-14T04:53:30.080Z,33.98
2019-01-14T04:54:01.276Z,33.67
2019-01-14T04:54:32.479Z,35.00
2019-01-14T04:55:03.724Z,34.78
2019-01-14T04:55:35.026Z,33.28
2019-01-14T04:56:06.238Z,35.15
2019-01-14T04:56:37.432Z,37.85
2019-01-14T04:57:08.666Z,39.42
2019-01-14T04:57:39.852Z,40.00
2019-01-14T04:58:11.113Z,41.05
2019-01-14T04:58:42.324Z,39.48
2019-01-14T04:59:13.527Z,36.80
2019-01-14T04:59:44.736Z,34.27
2019-01-14T05:00:15.964Z,34.83
2019-01-14T05:00:47.230Z,30.97
2019-01-14T05:01:18.454Z,33.13
2019-01-14T05:01:49.673Z,34.33
2019-01-14T05:02:20.936Z,33.92
2019-01-14T05:02:52.187Z,32.73
2019-01-14T05:03:23.471Z,33.33
2019-01-14T05:03:54.704Z,30.75
2019-01-14T05:04:25.916Z,31.85
2019-01-14T05:04:57.120Z,30.55
2019-01-14T05:05:28.329Z,30.88
2019-01-14T05:05:59.631Z,31.68
2019-01-14T05:06:30.879Z,29.00
2019-01-14T05:07:02.138Z,32.00
2019-01-14T05:07:33.387Z,31.77
2019-01-14T05:08:07.029Z,30.82
2019-01-14T05:08:38.324Z,29.00
2019-01-14T05:09:10.096Z,29.72
2019-01-14T05:09:41.349Z,32.53
2019-01-14T05:10:13.195Z,32.35
2019-01-14T05:10:44.497Z,32.93
2019-01-14T05:11:15.806Z,34.03
2019-01-14T05:11:47.538Z,33.75
2019-01-14T05:12:19.965Z,34.63
2019-01-14T05:12:51.348Z,34.92
2019-01-14T05:13:22.705Z,32.80
2019-01-14T05:13:53.957Z,33.13
2019-01-14T05:14:25.271Z,35.63
2019-01-14T05:14:56.574Z,35.33
2019-01-14T05:15:27.917Z,34.40
2019-01-14T05:16:02.397Z,32.38
2019-01-14T05:16:34.897Z,33.85
2019-01-14T05:17:06.226Z,35.05
2019-01-14T05:17:37.594Z,34.25
2019-01-14T05:18:08.959Z,34.25
2019-01-14T05:18:40.272Z,35.60
2019-01-14T05:19:11.584Z,35.15
2019-01-14T05:19:42.843Z,34.75
2019-01-14T05:20:14.102Z,35.88
2019-01-14T05:20:45.370Z,35.58
2019-01-14T05:21:16.585Z,35.17
2019-01-14T05:21:47.823Z,35.63
2019-01-14T05:22:19.054Z,34.92
2019-01-14T05:22:50.292Z,35.23
2019-01-14T05:23:21.618Z,34.38
2019-01-14T05:23:52.824Z,36.55
2019-01-14T05:24:24.021Z,33.67
2019-01-14T05:24:55.241Z,33.98
2019-01-14T05:25:26.474Z,35.20
2019-01-14T05:25:57.726Z,33.42
2019-01-14T05:26:28.999Z,34.88
2019-01-14T05:27:00.214Z,34.18
2019-01-14T05:27:31.474Z,32.13
2019-01-14T05:28:02.725Z,33.78
2019-01-14T05:28:33.940Z,35.23
2019-01-14T05:29:05.122Z,36.08
2019-01-14T05:29:36.368Z,34.53
2019-01-14T05:30:07.697Z,33.63
2019-01-14T05:30:38.952Z,33.50
2019-01-14T05:31:10.224Z,34.63
2019-01-14T05:31:41.992Z,33.92
2019-01-14T05:32:13.498Z,34.25
2019-01-14T05:32:44.711Z,35.15
2019-01-14T05:33:15.911Z,34.33
2019-01-14T05:33:47.109Z,34.45
2019-01-14T05:34:18.333Z,34.38
2019-01-14T05:34:49.575Z,32.85
2019-01-14T05:35:20.820Z,32.53
2019-01-14T05:35:52.015Z,32.55
2019-01-14T05:36:23.294Z,33.33
2019-01-14T05:36:54.516Z,32.90
2019-01-14T05:37:25.737Z,32.20
2019-01-14T05:37:56.942Z,32.17
2019-01-14T05:38:28.172Z,31.50
2019-01-14T05:38:59.377Z,33.20
2019-01-14T05:39:30.580Z,32.90
2019-01-14T05:40:01.788Z,32.17
2019-01-14T05:40:32.988Z,34.60
2019-01-14T05:41:04.206Z,34.10
2019-01-14T05:41:37.232Z,36.42
2019-01-14T05:42:08.443Z,34.33
2019-01-14T05:42:39.627Z,34.85
2019-01-14T05:43:10.936Z,36.73
2019-01-14T05:43:42.215Z,35.85
2019-01-14T05:44:13.424Z,36.68
2019-01-14T05:44:44.661Z,35.00
2019-01-14T05:45:17.162Z,36.17
2019-01-14T05:45:48.407Z,33.98
2019-01-14T05:46:19.694Z,34.05
2019-01-14T05:46:50.991Z,34.45
2019-01-14T05:47:22.401Z,34.65
2019-01-14T05:47:53.737Z,34.05
2019-01-14T05:48:24.998Z,34.27
2019-01-14T05:48:56.918Z,33.88
2019-01-14T05:49:28.269Z,34.78
2019-01-14T05:49:59.515Z,34.55
2019-01-14T05:50:30.857Z,35.98
2019-01-14T05:51:05.529Z,35.10
2019-01-14T05:51:36.889Z,35.63
2019-01-14T05:52:08.211Z,35.23
2019-01-14T05:52:39.693Z,34.50
2019-01-14T05:53:11.544Z,33.70
2019-01-14T05:53:43.856Z,33.33
2019-01-14T05:54:17.230Z,33.20
2019-01-14T05:54:52.123Z,32.17
2019-01-14T05:55:37.917Z,32.00
2019-01-14T05:56:10.867Z,29.95
2019-01-14T05:56:42.718Z,31.12
2019-01-14T05:57:14.028Z,31.12
2019-01-14T05:57:45.312Z,28.80
2019-01-14T05:58:18.648Z,31.17
2019-01-14T05:58:49.960Z,30.85
2019-01-14T05:59:21.436Z,30.60
2019-01-14T05:59:52.784Z,30.90
2019-01-14T06:00:24.212Z,31.60
2019-01-14T06:00:55.541Z,31.68
2019-01-14T06:01:28.860Z,32.93
2019-01-14T06:02:06.626Z,34.45
2019-01-14T06:02:38.735Z,33.55
2019-01-14T06:03:12.590Z,34.45
2019-01-14T06:03:45.268Z,31.68
2019-01-14T06:04:16.557Z,30.15
2019-01-14T06:04:47.896Z,27.73
2019-01-14T06:05:19.206Z,27.70
2019-01-14T06:05:50.467Z,26.42
2019-01-14T06:06:21.735Z,27.02
2019-01-14T06:06:52.956Z,28.73
2019-01-14T06:07:24.244Z,29.02
2019-01-14T06:07:55.487Z,31.73
2019-01-14T06:08:26.721Z,30.15
2019-01-14T06:08:58.079Z,27.77
2019-01-14T06:09:29.363Z,25.15
2019-01-14T06:10:00.691Z,25.65
2019-01-14T06:10:31.981Z,25.70
2019-01-14T06:11:03.172Z,26.15
2019-01-14T06:11:34.478Z,26.65
2019-01-14T06:12:06.736Z,27.05
2019-01-14T06:12:37.959Z,25.32
2019-01-14T06:13:09.222Z,27.25
2019-01-14T06:13:40.439Z,26.65
2019-01-14T06:14:11.767Z,25.45
2019-01-14T06:14:42.989Z,24.98
2019-01-14T06:15:14.261Z,24.10
2019-01-14T06:15:45.468Z,25.25
2019-01-14T06:16:18.368Z,24.52
2019-01-14T06:16:49.778Z,24.75
2019-01-14T06:17:21.009Z,24.35
2019-01-14T06:17:52.223Z,22.32
2019-01-14T06:18:23.445Z,23.52
2019-01-14T06:18:54.654Z,23.52
2019-01-14T06:19:25.864Z,23.55
2019-01-14T06:19:57.078Z,23.22
2019-01-14T06:20:28.302Z,24.05
2019-01-14T06:20:59.533Z,24.47
2019-01-14T06:21:30.766Z,23.87
2019-01-14T06:22:02.090Z,24.20
2019-01-14T06:22:33.376Z,23.67
2019-01-14T06:23:04.710Z,24.45
2019-01-14T06:23:44.544Z,24.12
2019-01-14T06:24:15.803Z,23.83
2019-01-14T06:24:47.031Z,25.70
2019-01-14T06:25:18.239Z,24.15
2019-01-14T06:25:49.563Z,24.15
2019-01-14T06:26:20.860Z,23.92
2019-01-14T06:26:52.090Z,24.80
2019-01-14T06:27:23.321Z,25.05
2019-01-14T06:27:54.597Z,23.30
2019-01-14T06:28:25.805Z,23.45
2019-01-14T06:28:57.013Z,23.90
2019-01-14T06:29:28.278Z,23.47
2019-01-14T06:29:59.519Z,22.37
2019-01-14T06:30:31.660Z,24.05
2019-01-14T06:31:02.942Z,23.55
2019-01-14T06:31:34.221Z,23.47
2019-01-14T06:32:05.446Z,23.47
2019-01-14T06:32:39.895Z,24.15
2019-01-14T06:36:05.659Z,21.73
2019-01-14T06:44:19.012Z,23.42
2019-01-14T06:55:36.230Z,23.73
2019-01-14T06:56:07.437Z,23.10
2019-01-14T06:56:38.660Z,24.12
2019-01-14T06:57:09.878Z,24.50
2019-01-14T06:57:41.099Z,22.75
2019-01-14T06:58:12.361Z,22.05
2019-01-14T06:58:43.560Z,21.35
2019-01-14T06:59:14.833Z,21.80
2019-01-14T06:59:46.080Z,22.58
2019-01-14T07:00:17.284Z,23.30
2019-01-14T07:00:48.527Z,23.55
2019-01-14T07:01:19.808Z,22.75
2019-01-14T07:05:16.693Z,20.68
2019-01-14T07:06:43.090Z,19.62
2019-01-14T07:07:14.547Z,21.52
2019-01-14T07:07:45.779Z,21.05
2019-01-14T07:08:17.020Z,21.33
2019-01-14T07:08:48.277Z,20.45
2019-01-14T07:09:19.568Z,21.82
2019-01-14T07:09:50.809Z,21.75
2019-01-14T07:10:22.024Z,22.58
2019-01-14T07:10:53.234Z,22.77
2019-01-14T07:11:24.426Z,22.52
2019-01-14T07:11:55.627Z,21.82
2019-01-14T07:12:26.873Z,22.22
2019-01-14T07:12:58.114Z,23.73
2019-01-14T07:13:29.288Z,22.87
2019-01-14T07:14:00.588Z,25.08
2019-01-14T07:14:31.789Z,23.75